createdAt,value
2022-10-17T05:20:05.359Z,942.08
2022-10-17T05:25:03.197Z,942.06
2022-10-17T05:30:04.283Z,942.04
2022-10-17T05:35:03.075Z,941.98
2022-10-17T05:40:04.294Z,941.98
2022-10-17T05:45:03.130Z,941.96
2022-10-17T05:50:04.243Z,941.94
2022-10-17T05:55:03.094Z,941.94
2022-10-17T06:00:06.089Z,941.90
2022-10-17T06:05:03.153Z,941.80
2022-10-17T06:10:04.255Z,941.74
2022-10-17T06:15:03.080Z,941.76
2022-10-17T06:20:04.208Z,941.72
2022-10-17T06:25:03.104Z,941.66
2022-10-17T06:30:04.477Z,941.66
2022-10-17T06:35:03.138Z,941.64
2022-10-17T06:40:04.284Z,941.63
2022-10-17T06:45:03.173Z,941.64
2022-10-17T06:50:04.162Z,941.68
2022-10-17T07:00:04.375Z,941.61
2022-10-17T07:05:03.148Z,941.61
2022-10-17T07:10:04.226Z,941.63
2022-10-17T07:15:03.181Z,941.68
2022-10-17T07:20:04.259Z,941.70
2022-10-17T07:25:03.168Z,941.78
2022-10-17T07:30:05.694Z,941.78
2022-10-17T07:35:03.132Z,941.82
2022-10-17T07:40:04.209Z,941.86
2022-10-17T07:45:03.146Z,941.86
2022-10-17T07:50:04.349Z,941.90
2022-10-17T07:55:03.151Z,941.98
2022-10-17T08:00:06.157Z,942.02
2022-10-17T08:05:03.142Z,942.02
2022-10-17T08:10:04.261Z,942.04
2022-10-17T08:15:03.158Z,942.10
2022-10-17T08:20:04.415Z,942.21
2022-10-17T08:25:03.178Z,942.25
2022-10-17T08:30:06.190Z,942.29
2022-10-17T08:35:03.179Z,942.39
2022-10-17T08:40:04.219Z,942.41
2022-10-17T08:45:03.302Z,942.49
2022-10-17T08:50:04.422Z,942.55
2022-10-17T08:55:03.065Z,942.61
2022-10-17T09:00:04.273Z,942.59
2022-10-17T09:05:03.343Z,942.65
2022-10-17T09:10:04.217Z,942.76
2022-10-17T09:15:03.152Z,942.88
2022-10-17T09:20:04.291Z,942.94
2022-10-17T09:25:03.397Z,942.92
2022-10-17T09:30:07.228Z,942.94
2022-10-17T09:35:03.116Z,943.04
2022-10-17T09:40:04.405Z,943.08
2022-10-17T09:45:03.168Z,943.08
2022-10-17T09:50:04.150Z,943.21
2022-10-17T09:55:03.197Z,943.29
2022-10-17T10:00:04.467Z,943.31
2022-10-17T10:05:04.481Z,943.31
2022-10-17T10:10:04.271Z,943.33
2022-10-17T10:15:03.241Z,943.35
2022-10-17T10:20:04.368Z,943.33
2022-10-17T10:25:03.311Z,943.33
2022-10-17T10:30:04.421Z,943.33
2022-10-17T10:35:03.269Z,943.35
2022-10-17T10:40:04.282Z,943.41
2022-10-17T10:45:03.120Z,943.45
2022-10-17T10:50:04.425Z,943.61
2022-10-17T10:55:03.198Z,943.61
2022-10-17T11:00:04.585Z,943.65
2022-10-17T11:05:03.105Z,943.70
2022-10-17T11:10:04.315Z,943.72
2022-10-17T11:15:03.193Z,943.74
2022-10-17T11:20:04.479Z,943.76
2022-10-17T11:25:03.217Z,943.82
2022-10-17T11:30:04.690Z,943.86
2022-10-17T11:35:03.177Z,943.92
2022-10-17T11:40:04.212Z,943.88
2022-10-17T11:45:03.163Z,943.84
2022-10-17T11:55:03.119Z,943.86
2022-10-17T12:00:04.380Z,943.82
2022-10-17T12:05:03.457Z,943.86
2022-10-17T12:10:04.236Z,943.86
2022-10-17T12:15:03.090Z,943.82
2022-10-17T12:20:04.208Z,943.82
2022-10-17T12:25:03.123Z,943.76
2022-10-17T12:30:05.435Z,943.76
2022-10-17T12:35:03.373Z,943.78
2022-10-17T12:40:04.222Z,943.76
2022-10-17T12:45:03.213Z,943.74
2022-10-17T12:50:04.225Z,943.70
2022-10-17T12:55:11.912Z,943.70
2022-10-17T13:00:06.072Z,943.68
2022-10-17T13:05:03.256Z,943.63
2022-10-17T13:10:05.410Z,943.51
2022-10-17T13:15:03.148Z,943.49
2022-10-17T13:20:04.304Z,943.47
2022-10-17T13:25:03.277Z,943.43
2022-10-17T13:30:06.083Z,943.39
2022-10-17T13:35:03.160Z,943.35
2022-10-17T13:40:11.658Z,943.27
2022-10-17T13:45:03.149Z,943.25
2022-10-17T13:50:06.943Z,943.18
2022-10-17T13:55:03.317Z,943.10
2022-10-17T14:00:08.539Z,942.98
2022-10-17T14:05:19.410Z,942.90
2022-10-17T14:10:04.256Z,942.84
2022-10-17T14:15:11.103Z,942.74
2022-10-17T14:20:34.341Z,942.68
2022-10-17T14:25:03.122Z,942.65
2022-10-17T14:30:05.589Z,942.59
2022-10-17T14:35:18.105Z,942.49
2022-10-17T14:40:04.176Z,942.37
2022-10-17T14:45:03.246Z,942.31
2022-10-17T14:50:04.262Z,942.27
2022-10-17T14:55:03.178Z,942.23
2022-10-17T15:00:06.481Z,942.13
2022-10-17T15:05:03.118Z,942.08
2022-10-17T15:10:04.238Z,942.08
2022-10-17T15:15:03.223Z,941.94
2022-10-17T15:20:04.268Z,941.82
2022-10-17T15:25:03.149Z,941.82
2022-10-17T15:30:06.107Z,941.84
2022-10-17T15:35:06.319Z,941.74
2022-10-17T15:40:04.284Z,941.72
2022-10-17T15:45:03.328Z,941.68
2022-10-17T15:50:04.307Z,941.61
2022-10-17T15:55:05.058Z,941.51
2022-10-17T16:00:06.159Z,941.43
2022-10-17T16:05:03.147Z,941.37
2022-10-17T16:10:04.251Z,941.33
2022-10-17T16:15:03.347Z,941.25
2022-10-17T16:20:04.453Z,941.06
2022-10-17T16:25:03.297Z,940.86
2022-10-17T16:30:04.530Z,940.80
2022-10-17T16:35:03.099Z,940.70
2022-10-17T16:40:04.410Z,940.61
2022-10-17T16:45:03.186Z,940.49
2022-10-17T16:50:04.398Z,940.45
2022-10-17T16:55:03.247Z,940.39
2022-10-17T17:00:04.579Z,940.31
2022-10-17T17:05:03.177Z,940.21
2022-10-17T17:10:04.337Z,940.13
2022-10-17T17:15:03.164Z,940.06
2022-10-17T17:20:04.318Z,939.96
2022-10-17T17:25:03.102Z,939.94
2022-10-17T17:30:06.197Z,939.94
2022-10-17T17:35:03.319Z,939.90
2022-10-17T17:40:04.290Z,939.90
2022-10-17T17:45:03.152Z,939.80
2022-10-17T17:50:04.405Z,939.78
2022-10-17T17:55:03.385Z,939.80
2022-10-17T18:00:04.458Z,939.72
2022-10-17T18:05:03.144Z,939.74
2022-10-17T18:10:04.376Z,939.72
2022-10-17T18:15:03.069Z,939.72
2022-10-17T18:20:04.245Z,939.72
2022-10-17T18:25:03.109Z,939.66
2022-10-17T18:30:04.698Z,939.64
2022-10-17T18:35:03.169Z,939.58
2022-10-17T18:40:04.274Z,939.49
2022-10-17T18:45:03.352Z,939.47
2022-10-17T18:50:04.297Z,939.45
2022-10-17T18:55:03.176Z,939.45
2022-10-17T19:00:04.955Z,939.53
2022-10-17T19:05:03.120Z,939.56
2022-10-17T19:10:04.389Z,939.51
2022-10-17T19:15:03.125Z,939.45
2022-10-17T19:20:04.277Z,939.47
2022-10-17T19:25:03.100Z,939.49
2022-10-17T19:30:05.711Z,939.53
2022-10-17T19:35:03.191Z,939.54
2022-10-17T19:40:04.282Z,939.56
2022-10-17T19:45:03.158Z,939.54
2022-10-17T19:55:03.135Z,939.58
2022-10-17T20:00:04.686Z,939.64
2022-10-17T20:05:19.013Z,939.66
2022-10-17T20:10:04.179Z,939.74
2022-10-17T20:15:03.130Z,939.78
2022-10-17T20:20:06.237Z,939.86
2022-10-17T20:25:03.144Z,939.86
2022-10-17T20:30:04.512Z,939.84
2022-10-17T20:35:03.555Z,939.74
2022-10-17T20:40:29.861Z,939.66
2022-10-17T20:45:03.135Z,939.76
2022-10-17T20:50:04.237Z,939.80
2022-10-17T20:55:03.220Z,939.76
2022-10-17T21:00:06.189Z,939.64
2022-10-17T21:05:03.419Z,939.60
2022-10-17T21:10:23.939Z,939.64
2022-10-17T21:15:03.080Z,939.70
2022-10-17T21:20:04.138Z,939.74
2022-10-17T21:25:03.184Z,939.84
2022-10-17T21:30:04.604Z,940.06
2022-10-17T21:35:03.228Z,940.31
2022-10-17T21:40:04.314Z,940.35
2022-10-17T21:45:07.385Z,940.29
2022-10-17T21:50:04.238Z,940.23
2022-10-17T21:55:03.189Z,940.21
2022-10-17T22:00:06.121Z,940.31
2022-10-17T22:05:03.111Z,940.41
2022-10-17T22:10:04.467Z,940.53
2022-10-17T22:15:03.192Z,940.59
2022-10-17T22:20:04.176Z,940.68
2022-10-17T22:25:03.170Z,940.76
2022-10-17T22:30:06.227Z,940.92
2022-10-17T22:35:03.161Z,940.94
2022-10-17T22:40:04.504Z,941.04
2022-10-17T22:45:03.224Z,941.11
2022-10-17T22:50:04.288Z,941.11
2022-10-17T22:55:03.190Z,941.08
2022-10-17T23:00:06.221Z,941.08
2022-10-17T23:05:03.186Z,941.13
2022-10-17T23:10:04.340Z,941.13
2022-10-17T23:15:03.060Z,941.13
2022-10-17T23:20:04.214Z,941.27
2022-10-17T23:25:03.280Z,941.45
2022-10-17T23:30:04.431Z,941.64
2022-10-17T23:35:03.728Z,941.94
2022-10-17T23:40:04.193Z,942.23
2022-10-17T23:45:03.293Z,942.41
2022-10-17T23:50:04.316Z,942.45
2022-10-17T23:55:03.114Z,942.49
